createdAt,value
2023-02-11T00:00:43.603Z,97939.66
2023-02-11T00:03:11.572Z,97939.66
2023-02-11T00:05:39.473Z,97946.69
2023-02-11T00:08:07.350Z,97944.53
2023-02-11T00:10:35.202Z,97938.56
2023-02-11T00:13:03.148Z,97924.16
2023-02-11T00:15:31.030Z,97928.25
2023-02-11T00:18:00.256Z,97916.84
2023-02-11T00:20:28.184Z,97928.25
2023-02-11T00:22:56.060Z,97921.72
2023-02-11T00:25:23.973Z,97924.72
2023-02-11T00:27:51.840Z,97920.66
2023-02-11T00:30:19.823Z,97925.81
2023-02-11T00:32:47.728Z,97921.47
2023-02-11T00:35:17.273Z,97920.66
2023-02-11T00:37:45.144Z,97911.69
2023-02-11T00:40:16.004Z,97912.50
2023-02-11T00:42:43.911Z,97912.50
2023-02-11T00:45:12.067Z,97912.25
2023-02-11T00:47:40.085Z,97916.84
2023-02-11T00:50:08.501Z,97916.84
2023-02-11T00:52:37.727Z,97921.72
2023-02-11T00:55:06.118Z,97921.72
2023-02-11T00:57:34.019Z,97927.97
2023-02-11T01:00:01.894Z,97923.38
2023-02-11T01:02:29.771Z,97921.19
2023-02-11T01:04:59.618Z,97910.34
2023-02-11T01:07:27.738Z,97911.41
2023-02-11T01:09:57.377Z,97907.03
2023-02-11T01:12:25.495Z,97908.16
2023-02-11T01:14:53.404Z,97897.81
2023-02-11T01:17:21.245Z,97904.59
2023-02-11T01:19:49.397Z,97889.66
2023-02-11T01:22:17.230Z,97885.84
2023-02-11T01:24:45.093Z,97877.16
2023-02-11T01:27:14.323Z,97874.19
2023-02-11T01:29:42.401Z,97859.31
2023-02-11T01:32:10.275Z,97856.84
2023-02-11T01:34:38.375Z,97865.81
2023-02-11T01:37:06.361Z,97849.00
2023-02-11T01:39:34.947Z,97856.06
2023-02-11T01:42:03.003Z,97851.72
2023-02-11T01:44:34.625Z,97844.66
2023-02-11T01:47:04.785Z,97850.09
2023-02-11T01:49:36.388Z,97833.56
2023-02-11T01:52:11.582Z,97831.66
2023-02-11T01:55:03.057Z,97825.72
2023-02-11T01:57:34.890Z,97827.34
2023-02-11T02:00:11.294Z,97828.69
2023-02-11T02:02:50.265Z,97842.78
2023-02-11T02:05:28.236Z,97833.84
2023-02-11T02:08:11.932Z,97827.91
2023-02-11T02:10:45.655Z,97836.28
2023-02-11T02:13:14.988Z,97831.69
2023-02-11T02:15:51.736Z,97832.75
2023-02-11T02:18:36.825Z,97831.16
2023-02-11T02:21:50.475Z,97824.63
2023-02-11T02:24:38.349Z,97818.13
2023-02-11T02:27:42.648Z,97804.31
2023-02-11T02:30:35.978Z,97807.81
2023-02-11T02:33:34.502Z,97799.97
2023-02-11T02:36:14.324Z,97801.31
2023-02-11T02:38:49.787Z,97792.59
2023-02-11T02:41:22.169Z,97808.31
2023-02-11T02:43:52.141Z,97800.19
2023-02-11T02:46:23.298Z,97798.03
2023-02-11T02:48:54.341Z,97802.63
2023-02-11T02:51:49.658Z,97805.00
2023-02-11T02:54:58.782Z,97814.28
2023-02-11T02:57:36.802Z,97805.84
2023-02-11T03:00:25.027Z,97806.97
2023-02-11T03:03:10.221Z,97802.94
2023-02-11T03:05:51.047Z,97806.16
2023-02-11T03:08:30.549Z,97804.53
2023-02-11T03:11:01.700Z,97803.44
2023-02-11T03:13:35.054Z,97799.66
2023-02-11T03:16:09.912Z,97801.81
2023-02-11T03:18:42.399Z,97789.88
2023-02-11T03:21:14.038Z,97789.88
2023-02-11T03:23:48.961Z,97793.97
2023-02-11T03:26:25.743Z,97784.19
2023-02-11T03:29:00.231Z,97782.28
2023-02-11T03:31:35.224Z,97780.69
2023-02-11T03:34:10.218Z,97782.81
2023-02-11T03:36:47.241Z,97782.00
2023-02-11T03:39:20.668Z,97785.00
2023-02-11T03:41:51.679Z,97798.00
2023-02-11T03:44:23.487Z,97795.81
2023-02-11T03:46:53.853Z,97798.00
2023-02-11T03:49:27.931Z,97808.31
2023-02-11T03:51:59.889Z,97813.22
2023-02-11T03:54:31.936Z,97813.72
2023-02-11T03:57:03.324Z,97813.22
2023-02-11T03:59:31.391Z,97804.84
2023-02-11T04:01:59.582Z,97804.00
2023-02-11T04:04:27.576Z,97794.50
2023-02-11T04:06:57.624Z,97797.47
2023-02-11T04:09:25.511Z,97802.63
2023-02-11T04:11:53.401Z,97793.41
2023-02-11T04:14:21.257Z,97806.97
2023-02-11T04:16:49.128Z,97809.66
2023-02-11T04:19:16.979Z,97812.63
2023-02-11T04:21:44.892Z,97819.63
2023-02-11T04:24:14.142Z,97811.47
2023-02-11T04:26:42.021Z,97822.63
2023-02-11T04:29:09.892Z,97810.38
2023-02-11T04:31:37.765Z,97817.97
2023-02-11T04:34:05.656Z,97819.91
2023-02-11T04:36:33.572Z,97818.25
2023-02-11T04:39:01.721Z,97811.66
2023-02-11T04:41:30.963Z,97813.56
2023-02-11T04:43:58.953Z,97817.91
2023-02-11T04:46:26.942Z,97805.69
2023-02-11T04:48:54.870Z,97802.66
2023-02-11T04:51:22.738Z,97804.31
2023-02-11T04:53:50.633Z,97798.88
2023-02-11T04:56:18.475Z,97795.06
2023-02-11T04:58:47.677Z,97795.06
2023-02-11T05:01:17.454Z,97787.72
2023-02-11T05:03:45.893Z,97782.84
2023-02-11T05:06:14.511Z,97778.00
2023-02-11T05:08:42.404Z,97783.97
2023-02-11T05:11:17.829Z,97777.41
2023-02-11T05:13:48.282Z,97777.38
2023-02-11T05:16:17.212Z,97782.56
2023-02-11T05:18:46.125Z,97785.53
2023-02-11T05:21:16.832Z,97777.34
2023-02-11T05:23:46.308Z,97770.03
2023-02-11T05:26:15.128Z,97775.47
2023-02-11T05:28:43.754Z,97776.53
2023-02-11T05:31:14.662Z,97758.59
2023-02-11T05:33:42.965Z,97764.59
2023-02-11T05:36:13.276Z,97758.03
2023-02-11T05:38:43.338Z,97756.72
2023-02-11T05:41:14.189Z,97759.69
2023-02-11T05:43:42.046Z,97753.91
2023-02-11T05:46:10.053Z,97762.41
2023-02-11T05:48:39.381Z,97756.44
2023-02-11T05:51:07.258Z,97754.25
2023-02-11T05:53:35.437Z,97757.78
2023-02-11T05:56:03.417Z,97749.06
2023-02-11T05:58:31.263Z,97753.06
2023-02-11T06:00:59.262Z,97752.81
2023-02-11T06:03:27.110Z,97768.78
2023-02-11T06:05:56.370Z,97754.16
2023-02-11T06:08:24.313Z,97757.06
2023-02-11T06:10:52.173Z,97757.91
2023-02-11T06:13:20.036Z,97758.97
2023-02-11T06:15:57.171Z,97758.16
2023-02-11T06:18:25.249Z,97746.97
2023-02-11T06:20:53.516Z,97757.91
2023-02-11T06:23:23.645Z,97757.28
2023-02-11T06:25:52.053Z,97751.31
2023-02-11T06:28:20.301Z,97754.03
2023-02-11T06:30:48.531Z,97765.47
2023-02-11T06:33:17.130Z,97758.41
2023-02-11T06:35:44.944Z,97754.88
2023-02-11T06:38:12.785Z,97748.00
2023-02-11T06:40:42.106Z,97756.69
2023-02-11T06:43:09.982Z,97751.50
2023-02-11T06:45:37.859Z,97765.66
2023-02-11T06:48:05.909Z,97764.19
2023-02-11T06:50:33.816Z,97760.66
2023-02-11T06:53:02.036Z,97759.28
2023-02-11T06:55:29.908Z,97751.09
2023-02-11T06:57:59.133Z,97743.56
2023-02-11T07:00:29.073Z,97742.19
2023-02-11T07:02:57.149Z,97759.31
2023-02-11T07:05:25.352Z,97754.34
2023-02-11T07:07:53.203Z,97749.41
2023-02-11T07:10:21.046Z,97762.97
2023-02-11T07:12:48.876Z,97765.63
2023-02-11T07:15:18.234Z,97764.53
2023-02-11T07:17:46.125Z,97765.06
2023-02-11T07:20:15.040Z,97769.38
2023-02-11T07:22:42.953Z,97766.94
2023-02-11T07:25:10.905Z,97760.63
2023-02-11T07:27:38.932Z,97757.91
2023-02-11T07:30:07.601Z,97763.13
2023-02-11T07:32:36.898Z,97769.81
2023-02-11T07:35:05.483Z,97763.72
2023-02-11T07:37:34.928Z,97764.53
2023-02-11T07:40:03.055Z,97771.63
2023-02-11T07:42:30.957Z,97765.94
2023-02-11T07:44:58.831Z,97757.16
2023-02-11T07:47:26.807Z,97755.38
2023-02-11T07:49:56.774Z,97763.88
2023-02-11T07:52:24.714Z,97774.53
2023-02-11T07:54:52.665Z,97761.69
2023-02-11T07:57:20.519Z,97766.88
2023-02-11T07:59:48.437Z,97766.09
2023-02-11T08:02:16.285Z,97755.00
2023-02-11T08:04:44.254Z,97756.19
2023-02-11T08:07:16.206Z,97748.19
2023-02-11T08:09:44.325Z,97744.97
2023-02-11T08:12:12.608Z,97762.38
2023-02-11T08:14:40.495Z,97774.28
2023-02-11T08:17:08.397Z,97781.69
2023-02-11T08:19:36.304Z,97788.13
2023-02-11T08:22:04.299Z,97779.88
2023-02-11T08:24:33.500Z,97795.75
2023-02-11T08:27:01.432Z,97784.16
2023-02-11T08:29:30.511Z,97785.03
2023-02-11T08:31:58.427Z,97781.91
2023-02-11T08:34:26.339Z,97785.66
2023-02-11T08:36:54.265Z,97778.56
2023-02-11T08:39:24.087Z,97776.06
2023-02-11T08:41:56.652Z,97788.75
2023-02-11T08:44:25.454Z,97801.88
2023-02-11T08:46:53.918Z,97792.28
2023-02-11T08:49:22.248Z,97781.19
2023-02-11T08:51:50.777Z,97762.25
2023-02-11T08:54:19.046Z,97754.47
2023-02-11T08:56:47.120Z,97759.97
2023-02-11T08:59:17.782Z,97757.31
2023-02-11T09:01:47.248Z,97763.13
2023-02-11T09:04:15.609Z,97759.38
2023-02-11T09:06:43.505Z,97749.06
2023-02-11T09:09:15.097Z,97742.19
2023-02-11T09:11:44.990Z,97744.13
2023-02-11T09:14:20.361Z,97749.41
2023-02-11T09:16:49.563Z,97736.56
2023-02-11T09:19:18.785Z,97736.41
2023-02-11T09:21:46.722Z,97743.72
2023-02-11T09:24:14.571Z,97735.28
2023-02-11T09:26:43.961Z,97727.09
2023-02-11T09:29:11.942Z,97740.94
2023-02-11T09:31:41.377Z,97736.69
2023-02-11T09:34:09.582Z,97738.53
2023-02-11T09:36:40.080Z,97733.78
2023-02-11T09:39:12.753Z,97748.16
2023-02-11T09:42:04.240Z,97756.84
2023-02-11T09:44:35.006Z,97758.97
2023-02-11T09:47:08.158Z,97758.16
2023-02-11T09:49:44.405Z,97744.81
2023-02-11T09:52:28.906Z,97742.38
2023-02-11T09:54:59.525Z,97748.06
2023-02-11T09:57:33.521Z,97757.16
2023-02-11T10:00:02.851Z,97765.06
2023-02-11T10:02:46.526Z,97769.91
2023-02-11T10:05:40.474Z,97763.03
2023-02-11T10:08:17.400Z,97763.81
2023-02-11T10:10:54.051Z,97759.25
2023-02-11T10:13:48.716Z,97764.63
2023-02-11T10:16:35.558Z,97757.72
2023-02-11T10:19:22.077Z,97764.03
2023-02-11T10:22:01.010Z,97770.66
2023-02-11T10:24:29.773Z,97751.63
2023-02-11T10:26:57.668Z,97762.34
2023-02-11T10:29:37.527Z,97766.78
2023-02-11T10:32:25.220Z,97767.03
2023-02-11T10:35:01.686Z,97755.91
2023-02-11T10:37:29.611Z,97759.47
2023-02-11T10:39:57.799Z,97754.44
2023-02-11T10:42:26.363Z,97768.03
2023-02-11T10:45:01.324Z,97768.91
2023-02-11T10:47:34.147Z,97762.03
2023-02-11T10:50:22.329Z,97757.94
2023-02-11T10:52:50.297Z,97752.47
2023-02-11T10:55:21.730Z,97750.53
2023-02-11T10:57:57.666Z,97746.84
2023-02-11T11:00:37.929Z,97745.22
2023-02-11T11:03:15.939Z,97750.06
2023-02-11T11:05:50.944Z,97748.38
2023-02-11T11:08:20.219Z,97740.78
2023-02-11T11:11:03.753Z,97738.38
2023-02-11T11:13:34.616Z,97731.41
2023-02-11T11:16:21.165Z,97735.13
2023-02-11T11:18:51.134Z,97724.56
2023-02-11T11:21:24.295Z,97738.66
2023-02-11T11:23:56.652Z,97730.63
2023-02-11T11:26:27.780Z,97733.09
2023-02-11T11:29:00.294Z,97730.50
2023-02-11T11:31:33.197Z,97735.72
2023-02-11T11:34:07.933Z,97727.63
2023-02-11T11:36:41.340Z,97725.38
2023-02-11T11:39:22.451Z,97728.00
2023-02-11T11:42:01.039Z,97721.06
2023-02-11T11:44:33.218Z,97709.00
2023-02-11T11:47:26.682Z,97727.72
2023-02-11T11:50:27.425Z,97723.59
2023-02-11T11:53:04.191Z,97719.59
2023-02-11T11:55:39.707Z,97715.47
2023-02-11T11:58:17.455Z,97722.50
2023-02-11T12:00:57.755Z,97728.13
2023-02-11T12:04:07.042Z,97734.69
2023-02-11T12:06:51.057Z,97730.31
2023-02-11T12:09:33.749Z,97724.97
2023-02-11T12:12:15.971Z,97715.63
2023-02-11T12:14:57.128Z,97708.72
2023-02-11T12:17:42.464Z,97712.47
2023-02-11T12:20:24.655Z,97709.44
2023-02-11T12:23:13.104Z,97706.19
2023-02-11T12:25:53.632Z,97712.81
2023-02-11T12:28:37.034Z,97715.09
2023-02-11T12:31:23.551Z,97723.50
2023-02-11T12:34:20.184Z,97719.50
2023-02-11T12:37:04.238Z,97712.44
2023-02-11T12:39:39.507Z,97714.06
2023-02-11T12:42:51.839Z,97709.38
2023-02-11T12:45:36.348Z,97714.38
2023-02-11T12:48:22.657Z,97717.94
2023-02-11T12:51:00.194Z,97715.03
2023-02-11T12:53:59.970Z,97714.88
2023-02-11T12:56:34.777Z,97712.44
2023-02-11T12:59:21.328Z,97715.03
2023-02-11T13:01:53.288Z,97705.63
2023-02-11T13:04:29.800Z,97704.00
2023-02-11T13:07:03.436Z,97697.75
2023-02-11T13:09:36.792Z,97695.16
2023-02-11T13:12:28.914Z,97696.44
2023-02-11T13:15:04.465Z,97696.94
2023-02-11T13:17:42.340Z,97689.66
2023-02-11T13:20:26.463Z,97694.69
2023-02-11T13:23:07.303Z,97691.13
2023-02-11T13:25:43.983Z,97697.56
2023-02-11T13:28:29.404Z,97686.28
2023-02-11T13:31:03.457Z,97685.94
2023-02-11T13:33:34.592Z,97683.03
2023-02-11T13:36:15.773Z,97675.31
2023-02-11T13:38:58.183Z,97671.25
2023-02-11T13:41:31.487Z,97681.94
2023-02-11T13:44:04.131Z,97681.28
2023-02-11T13:46:54.085Z,97677.38
2023-02-11T13:49:25.602Z,97675.94
2023-02-11T13:51:55.659Z,97671.41
2023-02-11T13:54:33.289Z,97662.84
2023-02-11T13:57:24.479Z,97666.91
2023-02-11T13:59:55.191Z,97666.06
2023-02-11T14:02:45.944Z,97662.22
2023-02-11T14:05:47.530Z,97669.97
2023-02-11T14:08:38.456Z,97673.34
2023-02-11T14:11:31.800Z,97668.53
2023-02-11T14:14:15.955Z,97666.91
2023-02-11T14:17:23.456Z,97650.09
2023-02-11T14:19:53.188Z,97642.19
2023-02-11T14:22:26.678Z,97648.34
2023-02-11T14:24:58.509Z,97638.63
2023-02-11T14:27:52.217Z,97650.44
2023-02-11T14:31:00.152Z,97652.72
2023-02-11T14:33:48.775Z,97657.38
2023-02-11T14:36:59.255Z,97657.22
2023-02-11T14:39:42.838Z,97667.56
2023-02-11T14:42:20.826Z,97660.94
2023-02-11T14:44:53.375Z,97664.50
2023-02-11T14:47:26.507Z,97665.94
2023-02-11T14:49:55.703Z,97670.59
2023-02-11T14:52:31.063Z,97672.22
2023-02-11T14:55:14.774Z,97676.59
2023-02-11T14:57:44.521Z,97683.38
2023-02-11T15:00:18.856Z,97683.38
2023-02-11T15:02:46.964Z,97692.91
2023-02-11T15:05:17.681Z,97681.75
2023-02-11T15:07:50.620Z,97696.78
2023-02-11T15:10:30.668Z,97693.38
2023-02-11T15:13:01.986Z,97696.94
2023-02-11T15:15:31.596Z,97695.97
2023-02-11T15:18:03.810Z,97701.16
2023-02-11T15:20:35.827Z,97710.66
2023-02-11T15:23:09.937Z,97710.66
2023-02-11T15:25:45.766Z,97708.72
2023-02-11T15:28:24.244Z,97704.66
2023-02-11T15:30:59.609Z,97701.31
2023-02-11T15:33:30.044Z,97703.69
2023-02-11T15:35:58.909Z,97696.28
2023-02-11T15:38:29.853Z,97704.19
2023-02-11T15:41:02.114Z,97696.44
2023-02-11T15:43:43.789Z,97701.75
2023-02-11T15:46:16.864Z,97700.13
2023-02-11T15:48:48.430Z,97707.25
2023-02-11T15:51:22.807Z,97701.75
2023-02-11T15:53:56.832Z,97708.50
2023-02-11T15:56:30.630Z,97703.69
2023-02-11T15:59:01.517Z,97704.66
2023-02-11T16:01:33.877Z,97711.09
2023-02-11T16:04:03.562Z,97723.34
2023-02-11T16:06:38.314Z,97718.19
2023-02-11T16:09:25.533Z,97726.56
2023-02-11T16:11:59.135Z,97724.28
2023-02-11T16:14:33.664Z,97724.63
2023-02-11T16:17:07.007Z,97727.38
2023-02-11T16:19:36.660Z,97725.41
2023-02-11T16:22:11.565Z,97725.41
2023-02-11T16:24:41.080Z,97727.66
2023-02-11T16:27:22.257Z,97729.09
2023-02-11T16:29:52.071Z,97733.91
2023-02-11T16:32:22.324Z,97726.31
2023-02-11T16:34:51.623Z,97723.75
2023-02-11T16:37:19.480Z,97723.44
2023-02-11T16:39:48.744Z,97731.00
2023-02-11T16:42:16.768Z,97737.31
2023-02-11T16:44:44.672Z,97734.91
2023-02-11T16:47:21.121Z,97738.91
2023-02-11T16:49:49.266Z,97749.06
2023-02-11T16:52:19.757Z,97736.00
2023-02-11T16:54:49.193Z,97741.81
2023-02-11T16:57:18.878Z,97746.13
2023-02-11T16:59:47.080Z,97749.22
2023-02-11T17:02:21.197Z,97745.66
2023-02-11T17:04:50.978Z,97743.72
2023-02-11T17:07:18.902Z,97750.19
2023-02-11T17:09:48.174Z,97762.06
2023-02-11T17:12:16.074Z,97759.84
2023-02-11T17:14:44.004Z,97750.47
2023-02-11T17:17:12.289Z,97757.72
2023-02-11T17:19:41.214Z,97766.75
2023-02-11T17:22:09.954Z,97758.69
2023-02-11T17:24:38.013Z,97758.69
2023-02-11T17:27:07.384Z,97773.72
2023-02-11T17:29:35.299Z,97766.44
2023-02-11T17:32:03.296Z,97759.84
2023-02-11T17:34:32.366Z,97761.56
2023-02-11T17:37:01.460Z,97761.09
2023-02-11T17:39:29.356Z,97768.06
2023-02-11T17:41:57.250Z,97780.63
2023-02-11T17:44:26.442Z,97777.84
2023-02-11T17:46:54.378Z,97777.72
2023-02-11T17:49:22.294Z,97779.91
2023-02-11T17:51:50.236Z,97777.66
2023-02-11T17:54:20.182Z,97781.19
2023-02-11T17:56:50.776Z,97788.63
2023-02-11T17:59:18.964Z,97786.03
2023-02-11T18:01:48.576Z,97794.13
2023-02-11T18:04:19.467Z,97795.50
2023-02-11T18:06:48.068Z,97790.00
2023-02-11T18:09:16.007Z,97798.44
2023-02-11T18:11:43.942Z,97799.84
2023-02-11T18:14:12.477Z,97789.72
2023-02-11T18:16:43.080Z,97788.91
2023-02-11T18:19:13.416Z,97794.19
2023-02-11T18:21:41.579Z,97784.41
2023-02-11T18:24:09.585Z,97791.00
2023-02-11T18:26:37.541Z,97787.28
2023-02-11T18:29:06.952Z,97783.06
2023-02-11T18:31:35.595Z,97783.06
2023-02-11T18:34:03.663Z,97778.03
2023-02-11T18:36:32.931Z,97784.59
2023-02-11T18:39:00.808Z,97778.19
2023-02-11T18:41:29.227Z,97778.31
2023-02-11T18:44:02.697Z,97782.34
2023-02-11T18:46:31.345Z,97783.13
2023-02-11T18:48:59.464Z,97797.09
2023-02-11T18:51:28.025Z,97794.94
2023-02-11T18:53:57.244Z,97787.53
2023-02-11T18:56:27.689Z,97796.88
2023-02-11T18:58:56.566Z,97799.19
2023-02-11T19:01:27.911Z,97803.72
2023-02-11T19:03:58.316Z,97811.31
2023-02-11T19:06:29.089Z,97806.47
2023-02-11T19:09:01.408Z,97804.38
2023-02-11T19:11:50.398Z,97810.97
2023-02-11T19:14:22.128Z,97809.97
2023-02-11T19:16:53.217Z,97808.47
2023-02-11T19:19:23.157Z,97807.06
2023-02-11T19:21:51.336Z,97801.31
2023-02-11T19:24:21.173Z,97809.03
2023-02-11T19:26:51.405Z,97805.19
2023-02-11T19:29:20.067Z,97808.94
2023-02-11T19:31:48.297Z,97812.50
2023-02-11T19:34:19.895Z,97804.38
2023-02-11T19:36:48.921Z,97806.13
2023-02-11T19:39:16.938Z,97800.97
2023-02-11T19:41:46.261Z,97817.28
2023-02-11T19:44:16.156Z,97811.38
2023-02-11T19:46:44.112Z,97812.69
2023-02-11T19:49:15.811Z,97810.97
2023-02-11T19:51:43.669Z,97808.22
2023-02-11T19:54:11.695Z,97809.69
2023-02-11T19:56:39.652Z,97818.31
2023-02-11T19:59:09.054Z,97818.00
2023-02-11T20:01:37.557Z,97819.13
2023-02-11T20:04:05.880Z,97821.63
2023-02-11T20:06:35.732Z,97827.91
2023-02-11T20:09:07.146Z,97828.03
2023-02-11T20:11:36.485Z,97820.94
2023-02-11T20:14:06.717Z,97831.88
2023-02-11T20:16:47.482Z,97826.28
2023-02-11T20:19:18.487Z,97831.13
2023-02-11T20:21:48.664Z,97829.03
2023-02-11T20:24:17.388Z,97826.75
2023-02-11T20:26:46.873Z,97825.16
2023-02-11T20:29:15.304Z,97843.19
2023-02-11T20:31:44.928Z,97843.41
2023-02-11T20:34:12.995Z,97842.78
2023-02-11T20:36:41.591Z,97835.78
2023-02-11T20:39:17.108Z,97836.72
2023-02-11T20:41:46.901Z,97838.53
2023-02-11T20:44:15.729Z,97847.56
2023-02-11T20:46:47.538Z,97840.47
2023-02-11T20:49:18.918Z,97843.19
2023-02-11T20:51:47.604Z,97844.81
2023-02-11T20:54:18.446Z,97853.16
2023-02-11T20:56:48.355Z,97857.09
2023-02-11T20:59:17.590Z,97859.34
2023-02-11T21:01:53.442Z,97859.75
2023-02-11T21:04:23.823Z,97852.69
2023-02-11T21:06:54.783Z,97857.66
2023-02-11T21:09:26.316Z,97863.53
2023-02-11T21:11:55.859Z,97867.97
2023-02-11T21:14:26.247Z,97874.31
2023-02-11T21:16:55.994Z,97865.13
2023-02-11T21:19:23.878Z,97861.50
2023-02-11T21:21:52.031Z,97871.84
2023-02-11T21:24:19.925Z,97870.81
2023-02-11T21:26:47.965Z,97873.16
2023-02-11T21:29:16.136Z,97858.63
2023-02-11T21:31:44.291Z,97851.19
2023-02-11T21:34:14.270Z,97854.31
2023-02-11T21:36:42.205Z,97851.59
2023-02-11T21:39:10.119Z,97856.66
2023-02-11T21:41:38.080Z,97862.53
2023-02-11T21:44:06.123Z,97854.16
2023-02-11T21:46:34.011Z,97865.78
2023-02-11T21:49:01.984Z,97863.97
2023-02-11T21:51:31.389Z,97867.72
2023-02-11T21:54:01.939Z,97865.41
2023-02-11T21:56:33.313Z,97864.16
2023-02-11T21:59:01.655Z,97861.72
2023-02-11T22:01:31.570Z,97862.00
2023-02-11T22:03:59.913Z,97864.94
2023-02-11T22:06:30.904Z,97868.28
2023-02-11T22:09:03.295Z,97863.31
2023-02-11T22:11:31.192Z,97870.31
2023-02-11T22:13:59.502Z,97881.84
2023-02-11T22:16:28.968Z,97881.47
2023-02-11T22:18:58.562Z,97883.31
2023-02-11T22:21:27.148Z,97893.75
2023-02-11T22:23:56.412Z,97886.66
2023-02-11T22:26:27.828Z,97884.72
2023-02-11T22:28:57.024Z,97885.97
2023-02-11T22:31:27.397Z,97875.38
2023-02-11T22:33:55.783Z,97880.25
2023-02-11T22:36:25.626Z,97874.56
2023-02-11T22:38:54.834Z,97869.91
2023-02-11T22:41:24.026Z,97862.44
2023-02-11T22:43:53.362Z,97856.97
2023-02-11T22:46:21.708Z,97858.88
2023-02-11T22:48:50.320Z,97854.50
2023-02-11T22:51:20.538Z,97855.31
2023-02-11T22:53:52.663Z,97862.34
2023-02-11T22:56:21.650Z,97863.16
2023-02-11T22:58:50.218Z,97869.13
2023-02-11T23:01:19.892Z,97874.59
2023-02-11T23:03:47.845Z,97876.84
2023-02-11T23:06:15.753Z,97871.97
2023-02-11T23:08:44.707Z,97879.06
2023-02-11T23:11:14.987Z,97889.38
2023-02-11T23:13:43.959Z,97886.16
2023-02-11T23:16:15.248Z,97898.13
2023-02-11T23:18:46.717Z,97892.03
2023-02-11T23:21:18.226Z,97890.00
2023-02-11T23:23:47.938Z,97891.44
2023-02-11T23:26:18.842Z,97887.47
2023-02-11T23:28:48.148Z,97887.16
2023-02-11T23:31:19.125Z,97892.47
2023-02-11T23:33:50.099Z,97886.47
2023-02-11T23:36:19.871Z,97896.84
2023-02-11T23:38:48.589Z,97900.16
2023-02-11T23:41:20.723Z,97898.66
2023-02-11T23:43:51.691Z,97895.28
2023-02-11T23:46:22.462Z,97889.91
2023-02-11T23:48:53.116Z,97897.22
2023-02-11T23:51:21.832Z,97907.06
2023-02-11T23:53:52.522Z,97904.00
2023-02-11T23:56:23.147Z,97904.63
2023-02-11T23:58:53.010Z,97906.88
